sensor_id;sensor_type;location;lat;lon;timestamp;pressure;altitude;pressure_sealevel;temperature;humidity
62333;BME280;48624;49.812;8.562;2023-06-19T00:01:14;99954.28;;;25.16;47.18
62333;BME280;48624;49.812;8.562;2023-06-19T00:03:39;99954.00;;;25.31;46.87
62333;BME280;48624;49.812;8.562;2023-06-19T00:06:05;99956.13;;;25.23;47.24
62333;BME280;48624;49.812;8.562;2023-06-19T00:08:31;99953.88;;;25.13;47.26
62333;BME280;48624;49.812;8.562;2023-06-19T00:10:56;99951.56;;;25.16;47.21
62333;BME280;48624;49.812;8.562;2023-06-19T00:13:21;99950.34;;;25.12;47.66
62333;BME280;48624;49.812;8.562;2023-06-19T00:15:47;99950.53;;;25.11;47.41
62333;BME280;48624;49.812;8.562;2023-06-19T00:18:12;99953.28;;;25.04;47.92
62333;BME280;48624;49.812;8.562;2023-06-19T00:20:37;99948.91;;;25.03;47.84
62333;BME280;48624;49.812;8.562;2023-06-19T00:23:04;99950.97;;;25.07;47.63
62333;BME280;48624;49.812;8.562;2023-06-19T00:25:30;99939.66;;;25.17;47.52
62333;BME280;48624;49.812;8.562;2023-06-19T00:27:55;99945.16;;;25.04;48.92
62333;BME280;48624;49.812;8.562;2023-06-19T00:30:20;99943.31;;;24.91;49.99
62333;BME280;48624;49.812;8.562;2023-06-19T00:32:45;99945.00;;;24.78;50.74
62333;BME280;48624;49.812;8.562;2023-06-19T00:35:15;99946.00;;;24.77;50.18
62333;BME280;48624;49.812;8.562;2023-06-19T00:37:41;99952.88;;;24.73;50.28
62333;BME280;48624;49.812;8.562;2023-06-19T00:40:16;99951.84;;;24.61;50.81
62333;BME280;48624;49.812;8.562;2023-06-19T00:42:44;99956.19;;;24.75;49.64
62333;BME280;48624;49.812;8.562;2023-06-19T00:45:10;99962.06;;;24.72;49.71
62333;BME280;48624;49.812;8.562;2023-06-19T00:47:36;99972.88;;;24.72;49.37
62333;BME280;48624;49.812;8.562;2023-06-19T00:50:02;99993.13;;;24.90;50.42
62333;BME280;48624;49.812;8.562;2023-06-19T00:52:27;100000.19;;;24.50;52.40
62333;BME280;48624;49.812;8.562;2023-06-19T00:54:52;99990.09;;;24.04;54.71
62333;BME280;48624;49.812;8.562;2023-06-19T00:57:19;100007.41;;;24.16;54.33
62333;BME280;48624;49.812;8.562;2023-06-19T00:59:44;99999.44;;;23.88;54.73
62333;BME280;48624;49.812;8.562;2023-06-19T01:02:09;99987.03;;;23.51;56.62
62333;BME280;48624;49.812;8.562;2023-06-19T01:04:34;99988.50;;;23.54;55.23
62333;BME280;48624;49.812;8.562;2023-06-19T01:07:08;99993.31;;;23.65;54.22
62333;BME280;48624;49.812;8.562;2023-06-19T01:10:04;99981.63;;;23.58;54.74
62333;BME280;48624;49.812;8.562;2023-06-19T01:12:36;99982.72;;;23.70;53.48
62333;BME280;48624;49.812;8.562;2023-06-19T01:15:03;99974.41;;;23.72;53.58
62333;BME280;48624;49.812;8.562;2023-06-19T01:17:30;99965.03;;;23.68;53.91
62333;BME280;48624;49.812;8.562;2023-06-19T01:19:57;99968.31;;;23.56;54.47
62333;BME280;48624;49.812;8.562;2023-06-19T01:22:27;99971.22;;;23.48;55.01
62333;BME280;48624;49.812;8.562;2023-06-19T01:24:52;99974.53;;;23.50;54.84
62333;BME280;48624;49.812;8.562;2023-06-19T01:27:18;99977.63;;;23.47;55.13
62333;BME280;48624;49.812;8.562;2023-06-19T01:29:43;99972.19;;;23.40;55.42
62333;BME280;48624;49.812;8.562;2023-06-19T01:32:13;99978.19;;;23.36;55.38
62333;BME280;48624;49.812;8.562;2023-06-19T01:34:41;99981.91;;;23.28;55.90
62333;BME280;48624;49.812;8.562;2023-06-19T01:37:10;99976.88;;;23.25;55.41
62333;BME280;48624;49.812;8.562;2023-06-19T01:39:36;99982.28;;;23.25;55.28
62333;BME280;48624;49.812;8.562;2023-06-19T01:42:02;99988.28;;;23.20;55.29
62333;BME280;48624;49.812;8.562;2023-06-19T01:44:29;99993.69;;;23.20;54.90
62333;BME280;48624;49.812;8.562;2023-06-19T01:46:54;99989.19;;;22.99;55.58
62333;BME280;48624;49.812;8.562;2023-06-19T01:49:20;99986.19;;;22.87;55.27
62333;BME280;48624;49.812;8.562;2023-06-19T01:51:45;99995.00;;;22.96;54.79
62333;BME280;48624;49.812;8.562;2023-06-19T01:54:11;100035.25;;;22.91;54.47
62333;BME280;48624;49.812;8.562;2023-06-19T01:56:37;100055.97;;;22.83;55.02
62333;BME280;48624;49.812;8.562;2023-06-19T01:59:02;100053.41;;;22.75;55.09
62333;BME280;48624;49.812;8.562;2023-06-19T02:01:28;100044.50;;;22.53;55.69
62333;BME280;48624;49.812;8.562;2023-06-19T02:03:54;100048.75;;;22.47;55.82
62333;BME280;48624;49.812;8.562;2023-06-19T02:06:19;100048.91;;;22.39;56.49
62333;BME280;48624;49.812;8.562;2023-06-19T02:08:46;100047.94;;;22.47;56.07
62333;BME280;48624;49.812;8.562;2023-06-19T02:11:11;100058.16;;;22.29;56.76
62333;BME280;48624;49.812;8.562;2023-06-19T02:13:37;100053.91;;;22.42;56.51
62333;BME280;48624;49.812;8.562;2023-06-19T02:16:02;100053.97;;;22.27;57.26
62333;BME280;48624;49.812;8.562;2023-06-19T02:18:27;100063.16;;;22.33;56.81
62333;BME280;48624;49.812;8.562;2023-06-19T02:20:53;100065.00;;;22.32;56.93
62333;BME280;48624;49.812;8.562;2023-06-19T02:23:18;100069.00;;;22.36;56.23
62333;BME280;48624;49.812;8.562;2023-06-19T02:25:43;100068.94;;;22.29;56.76
62333;BME280;48624;49.812;8.562;2023-06-19T02:28:08;100068.56;;;22.33;56.51
62333;BME280;48624;49.812;8.562;2023-06-19T02:30:34;100063.03;;;22.04;59.04
62333;BME280;48624;49.812;8.562;2023-06-19T02:32:59;100062.53;;;22.30;56.88
62333;BME280;48624;49.812;8.562;2023-06-19T02:35:24;100062.66;;;22.44;56.79
62333;BME280;48624;49.812;8.562;2023-06-19T02:37:50;100070.50;;;22.39;57.13
62333;BME280;48624;49.812;8.562;2023-06-19T02:40:15;100069.81;;;22.52;56.77
62333;BME280;48624;49.812;8.562;2023-06-19T02:42:40;100076.09;;;22.59;56.34
62333;BME280;48624;49.812;8.562;2023-06-19T02:45:06;100088.13;;;22.56;56.33
62333;BME280;48624;49.812;8.562;2023-06-19T02:47:32;100086.97;;;22.66;56.28
62333;BME280;48624;49.812;8.562;2023-06-19T02:50:00;100097.31;;;22.62;56.06
62333;BME280;48624;49.812;8.562;2023-06-19T02:52:27;100089.47;;;22.45;56.55
62333;BME280;48624;49.812;8.562;2023-06-19T02:54:53;100095.22;;;22.42;56.54
62333;BME280;48624;49.812;8.562;2023-06-19T02:57:18;100097.41;;;22.32;57.32
62333;BME280;48624;49.812;8.562;2023-06-19T02:59:44;100100.59;;;22.21;57.52
62333;BME280;48624;49.812;8.562;2023-06-19T03:02:10;100095.38;;;22.34;56.54
62333;BME280;48624;49.812;8.562;2023-06-19T03:04:36;100102.44;;;22.35;56.89
62333;BME280;48624;49.812;8.562;2023-06-19T03:07:02;100109.09;;;22.39;56.83
62333;BME280;48624;49.812;8.562;2023-06-19T03:09:29;100116.00;;;22.42;56.42
62333;BME280;48624;49.812;8.562;2023-06-19T03:11:54;100114.03;;;22.36;56.89
62333;BME280;48624;49.812;8.562;2023-06-19T03:14:20;100122.88;;;22.44;56.43
62333;BME280;48624;49.812;8.562;2023-06-19T03:16:45;100126.59;;;22.58;56.02
62333;BME280;48624;49.812;8.562;2023-06-19T03:19:10;100129.53;;;22.64;55.96
62333;BME280;48624;49.812;8.562;2023-06-19T03:21:35;100132.16;;;22.57;56.56
62333;BME280;48624;49.812;8.562;2023-06-19T03:24:01;100129.13;;;22.67;55.88
62333;BME280;48624;49.812;8.562;2023-06-19T03:26:26;100136.03;;;22.69;55.42
62333;BME280;48624;49.812;8.562;2023-06-19T03:28:51;100145.78;;;22.70;55.63
62333;BME280;48624;49.812;8.562;2023-06-19T03:31:17;100145.19;;;22.53;56.24
62333;BME280;48624;49.812;8.562;2023-06-19T03:33:43;100146.94;;;22.61;55.37
62333;BME280;48624;49.812;8.562;2023-06-19T03:36:08;100161.00;;;22.56;55.51
62333;BME280;48624;49.812;8.562;2023-06-19T03:38:34;100159.63;;;22.61;55.00
62333;BME280;48624;49.812;8.562;2023-06-19T03:40:59;100156.22;;;22.73;54.64
62333;BME280;48624;49.812;8.562;2023-06-19T03:43:25;100157.44;;;22.71;55.16
62333;BME280;48624;49.812;8.562;2023-06-19T03:45:50;100167.59;;;22.69;55.38
62333;BME280;48624;49.812;8.562;2023-06-19T03:48:16;100164.00;;;22.62;55.83
62333;BME280;48624;49.812;8.562;2023-06-19T03:50:42;100165.53;;;22.71;55.26
62333;BME280;48624;49.812;8.562;2023-06-19T03:53:09;100180.13;;;22.55;56.13
62333;BME280;48624;49.812;8.562;2023-06-19T03:55:34;100164.78;;;22.25;57.75
62333;BME280;48624;49.812;8.562;2023-06-19T03:57:59;100176.09;;;22.51;56.68
62333;BME280;48624;49.812;8.562;2023-06-19T04:00:25;100173.41;;;22.51;56.92
62333;BME280;48624;49.812;8.562;2023-06-19T04:02:50;100184.97;;;22.29;58.18
62333;BME280;48624;49.812;8.562;2023-06-19T04:05:15;100186.41;;;22.47;56.94
62333;BME280;48624;49.812;8.562;2023-06-19T04:07:41;100180.00;;;22.48;57.22
62333;BME280;48624;49.812;8.562;2023-06-19T04:10:07;100183.19;;;22.52;57.17
62333;BME280;48624;49.812;8.562;2023-06-19T04:12:32;100191.47;;;22.35;58.17
62333;BME280;48624;49.812;8.562;2023-06-19T04:14:57;100185.78;;;22.45;57.40
62333;BME280;48624;49.812;8.562;2023-06-19T04:17:23;100205.13;;;22.49;57.66
62333;BME280;48624;49.812;8.562;2023-06-19T04:19:48;100198.22;;;22.61;57.22
62333;BME280;48624;49.812;8.562;2023-06-19T04:22:14;100197.19;;;22.62;57.06
62333;BME280;48624;49.812;8.562;2023-06-19T04:24:39;100208.41;;;22.29;58.90
62333;BME280;48624;49.812;8.562;2023-06-19T04:27:05;100205.50;;;22.45;58.15
62333;BME280;48624;49.812;8.562;2023-06-19T04:29:33;100214.34;;;22.54;58.13
62333;BME280;48624;49.812;8.562;2023-06-19T04:31:58;100213.78;;;22.59;57.86
62333;BME280;48624;49.812;8.562;2023-06-19T04:34:24;100211.28;;;22.42;58.82
62333;BME280;48624;49.812;8.562;2023-06-19T04:36:50;100225.69;;;22.65;58.12
62333;BME280;48624;49.812;8.562;2023-06-19T04:39:16;100221.59;;;22.69;57.93
62333;BME280;48624;49.812;8.562;2023-06-19T04:41:43;100215.09;;;22.63;58.73
62333;BME280;48624;49.812;8.562;2023-06-19T04:44:09;100225.13;;;22.69;58.86
62333;BME280;48624;49.812;8.562;2023-06-19T04:46:34;100225.28;;;22.83;58.15
62333;BME280;48624;49.812;8.562;2023-06-19T04:49:00;100226.63;;;22.94;58.02
62333;BME280;48624;49.812;8.562;2023-06-19T04:51:25;100225.97;;;22.70;59.09
62333;BME280;48624;49.812;8.562;2023-06-19T04:53:51;100225.25;;;22.98;58.00
62333;BME280;48624;49.812;8.562;2023-06-19T04:56:18;100229.50;;;23.07;57.87
62333;BME280;48624;49.812;8.562;2023-06-19T04:58:43;100233.88;;;23.08;58.17
62333;BME280;48624;49.812;8.562;2023-06-19T05:01:12;100236.50;;;23.23;58.26
62333;BME280;48624;49.812;8.562;2023-06-19T05:03:39;100241.81;;;23.32;58.20
62333;BME280;48624;49.812;8.562;2023-06-19T05:06:04;100237.31;;;23.02;60.25
62333;BME280;48624;49.812;8.562;2023-06-19T05:08:29;100238.22;;;22.88;61.34
62333;BME280;48624;49.812;8.562;2023-06-19T05:10:55;100249.72;;;22.96;61.63
62333;BME280;48624;49.812;8.562;2023-06-19T05:13:21;100241.75;;;22.88;62.40
62333;BME280;48624;49.812;8.562;2023-06-19T05:15:47;100247.66;;;22.77;64.25
62333;BME280;48624;49.812;8.562;2023-06-19T05:18:13;100250.06;;;22.86;63.76
62333;BME280;48624;49.812;8.562;2023-06-19T05:20:38;100239.91;;;23.10;62.52
62333;BME280;48624;49.812;8.562;2023-06-19T05:23:04;100245.00;;;23.20;62.24
62333;BME280;48624;49.812;8.562;2023-06-19T05:25:29;100243.75;;;23.23;62.48
62333;BME280;48624;49.812;8.562;2023-06-19T05:27:54;100240.22;;;23.22;62.96
62333;BME280;48624;49.812;8.562;2023-06-19T05:30:19;100240.88;;;23.24;63.86
62333;BME280;48624;49.812;8.562;2023-06-19T05:32:45;100238.00;;;23.48;62.57
62333;BME280;48624;49.812;8.562;2023-06-19T05:35:10;100235.28;;;23.48;62.69
62333;BME280;48624;49.812;8.562;2023-06-19T05:37:35;100245.06;;;23.27;63.84
62333;BME280;48624;49.812;8.562;2023-06-19T05:40:01;100250.09;;;23.30;63.67
62333;BME280;48624;49.812;8.562;2023-06-19T05:42:26;100246.63;;;23.36;63.32
62333;BME280;48624;49.812;8.562;2023-06-19T05:44:51;100249.63;;;23.26;64.05
62333;BME280;48624;49.812;8.562;2023-06-19T05:47:17;100250.47;;;23.49;63.09
62333;BME280;48624;49.812;8.562;2023-06-19T05:49:44;100242.75;;;23.46;63.30
62333;BME280;48624;49.812;8.562;2023-06-19T05:52:10;100246.88;;;23.63;62.28
62333;BME280;48624;49.812;8.562;2023-06-19T05:54:35;100245.69;;;23.73;61.78
62333;BME280;48624;49.812;8.562;2023-06-19T05:57:01;100252.41;;;23.55;62.83
62333;BME280;48624;49.812;8.562;2023-06-19T05:59:26;100239.88;;;23.76;62.27
62333;BME280;48624;49.812;8.562;2023-06-19T06:01:52;100247.53;;;24.01;61.08
62333;BME280;48624;49.812;8.562;2023-06-19T06:04:18;100254.19;;;23.98;61.67
62333;BME280;48624;49.812;8.562;2023-06-19T06:06:46;100260.38;;;24.20;60.64
62333;BME280;48624;49.812;8.562;2023-06-19T06:09:12;100263.38;;;24.04;61.00
62333;BME280;48624;49.812;8.562;2023-06-19T06:11:38;100268.44;;;24.14;60.98
62333;BME280;48624;49.812;8.562;2023-06-19T06:14:04;100274.75;;;24.21;60.73
62333;BME280;48624;49.812;8.562;2023-06-19T06:16:29;100267.78;;;24.40;60.19
62333;BME280;48624;49.812;8.562;2023-06-19T06:18:54;100262.81;;;24.44;60.20
62333;BME280;48624;49.812;8.562;2023-06-19T06:21:19;100262.88;;;24.64;58.40
62333;BME280;48624;49.812;8.562;2023-06-19T06:23:45;100266.44;;;24.22;60.11
62333;BME280;48624;49.812;8.562;2023-06-19T06:26:10;100264.09;;;24.55;59.23
62333;BME280;48624;49.812;8.562;2023-06-19T06:28:36;100266.22;;;24.66;58.75
62333;BME280;48624;49.812;8.562;2023-06-19T06:31:01;100268.41;;;24.91;57.68
62333;BME280;48624;49.812;8.562;2023-06-19T06:33:27;100266.81;;;25.17;57.45
62333;BME280;48624;49.812;8.562;2023-06-19T06:35:55;100258.28;;;25.27;56.95
62333;BME280;48624;49.812;8.562;2023-06-19T06:38:20;100266.75;;;24.97;57.96
62333;BME280;48624;49.812;8.562;2023-06-19T06:40:45;100259.38;;;24.77;58.09
62333;BME280;48624;49.812;8.562;2023-06-19T06:43:11;100273.66;;;24.99;57.69
62333;BME280;48624;49.812;8.562;2023-06-19T06:45:36;100265.34;;;25.14;57.16
62333;BME280;48624;49.812;8.562;2023-06-19T06:48:04;100260.78;;;25.15;57.13
62333;BME280;48624;49.812;8.562;2023-06-19T06:50:30;100262.63;;;25.14;57.70
62333;BME280;48624;49.812;8.562;2023-06-19T06:52:57;100258.88;;;25.15;58.23
62333;BME280;48624;49.812;8.562;2023-06-19T06:55:22;100263.06;;;25.04;58.42
62333;BME280;48624;49.812;8.562;2023-06-19T06:57:47;100263.69;;;25.20;58.21
62333;BME280;48624;49.812;8.562;2023-06-19T07:00:13;100267.47;;;25.39;56.98
62333;BME280;48624;49.812;8.562;2023-06-19T07:02:40;100270.41;;;26.05;53.97
62333;BME280;48624;49.812;8.562;2023-06-19T07:05:07;100267.28;;;25.47;57.22
62333;BME280;48624;49.812;8.562;2023-06-19T07:07:32;100274.38;;;25.96;55.71
62333;BME280;48624;49.812;8.562;2023-06-19T07:09:57;100276.03;;;25.97;55.40
62333;BME280;48624;49.812;8.562;2023-06-19T07:12:23;100276.25;;;26.02;55.21
62333;BME280;48624;49.812;8.562;2023-06-19T07:14:48;100290.03;;;26.14;54.72
62333;BME280;48624;49.812;8.562;2023-06-19T07:17:13;100284.56;;;26.34;54.30
62333;BME280;48624;49.812;8.562;2023-06-19T07:19:39;100289.31;;;26.45;53.36
62333;BME280;48624;49.812;8.562;2023-06-19T07:22:04;100276.63;;;26.26;53.59
62333;BME280;48624;49.812;8.562;2023-06-19T07:24:29;100287.91;;;26.29;53.40
62333;BME280;48624;49.812;8.562;2023-06-19T07:26:55;100291.47;;;26.30;53.33
62333;BME280;48624;49.812;8.562;2023-06-19T07:29:21;100296.09;;;25.96;54.88
62333;BME280;48624;49.812;8.562;2023-06-19T07:31:47;100293.72;;;26.47;52.80
62333;BME280;48624;49.812;8.562;2023-06-19T07:34:13;100302.34;;;26.03;54.86
62333;BME280;48624;49.812;8.562;2023-06-19T07:36:38;100299.19;;;26.13;53.88
62333;BME280;48624;49.812;8.562;2023-06-19T07:39:03;100303.13;;;26.51;53.56
62333;BME280;48624;49.812;8.562;2023-06-19T07:41:29;100297.94;;;26.36;53.82
62333;BME280;48624;49.812;8.562;2023-06-19T07:43:54;100296.47;;;26.99;51.82
62333;BME280;48624;49.812;8.562;2023-06-19T07:46:21;100301.91;;;26.99;52.19
62333;BME280;48624;49.812;8.562;2023-06-19T07:48:46;100305.00;;;27.03;51.40
62333;BME280;48624;49.812;8.562;2023-06-19T07:51:12;100307.31;;;27.06;51.77
62333;BME280;48624;49.812;8.562;2023-06-19T07:53:37;100312.50;;;27.07;51.21
62333;BME280;48624;49.812;8.562;2023-06-19T07:56:04;100311.19;;;27.23;50.70
62333;BME280;48624;49.812;8.562;2023-06-19T07:58:29;100313.28;;;26.76;52.13
62333;BME280;48624;49.812;8.562;2023-06-19T08:00:55;100317.16;;;26.93;51.86
62333;BME280;48624;49.812;8.562;2023-06-19T08:03:21;100320.56;;;27.27;51.55
62333;BME280;48624;49.812;8.562;2023-06-19T08:05:47;100314.91;;;26.90;53.20
62333;BME280;48624;49.812;8.562;2023-06-19T08:08:12;100321.31;;;27.41;51.31
62333;BME280;48624;49.812;8.562;2023-06-19T08:10:38;100322.06;;;27.23;52.24
62333;BME280;48624;49.812;8.562;2023-06-19T08:13:03;100331.19;;;26.90;52.46
62333;BME280;48624;49.812;8.562;2023-06-19T08:15:29;100337.25;;;26.99;52.75
62333;BME280;48624;49.812;8.562;2023-06-19T08:17:56;100333.03;;;27.74;50.57
62333;BME280;48624;49.812;8.562;2023-06-19T08:20:22;100339.34;;;27.93;49.47
62333;BME280;48624;49.812;8.562;2023-06-19T08:22:47;100336.88;;;27.27;51.71
62333;BME280;48624;49.812;8.562;2023-06-19T08:25:12;100339.25;;;27.56;50.86
62333;BME280;48624;49.812;8.562;2023-06-19T08:27:38;100346.56;;;27.49;51.26
62333;BME280;48624;49.812;8.562;2023-06-19T08:30:03;100333.84;;;27.10;52.13
62333;BME280;48624;49.812;8.562;2023-06-19T08:32:29;100335.22;;;27.59;51.01
62333;BME280;48624;49.812;8.562;2023-06-19T08:34:54;100336.72;;;27.54;51.22
62333;BME280;48624;49.812;8.562;2023-06-19T08:37:19;100338.00;;;27.77;50.13
62333;BME280;48624;49.812;8.562;2023-06-19T08:39:44;100340.25;;;27.87;49.48
62333;BME280;48624;49.812;8.562;2023-06-19T08:42:10;100345.16;;;27.39;51.37
62333;BME280;48624;49.812;8.562;2023-06-19T08:44:36;100342.69;;;27.70;50.84
62333;BME280;48624;49.812;8.562;2023-06-19T08:47:02;100348.03;;;27.12;52.20
62333;BME280;48624;49.812;8.562;2023-06-19T08:49:35;100335.56;;;27.37;52.28
62333;BME280;48624;49.812;8.562;2023-06-19T08:52:04;100342.91;;;28.19;49.70
62333;BME280;48624;49.812;8.562;2023-06-19T08:54:30;100349.84;;;28.15;49.16
62333;BME280;48624;49.812;8.562;2023-06-19T08:56:56;100347.81;;;27.85;49.99
62333;BME280;48624;49.812;8.562;2023-06-19T08:59:21;100342.06;;;27.93;50.28
62333;BME280;48624;49.812;8.562;2023-06-19T09:01:51;100339.63;;;28.36;48.61
62333;BME280;48624;49.812;8.562;2023-06-19T09:04:21;100348.22;;;28.07;50.19
62333;BME280;48624;49.812;8.562;2023-06-19T09:07:00;100333.28;;;28.61;48.18
62333;BME280;48624;49.812;8.562;2023-06-19T09:09:26;100338.91;;;27.96;50.67
62333;BME280;48624;49.812;8.562;2023-06-19T09:12:00;100342.09;;;28.12;49.84
62333;BME280;48624;49.812;8.562;2023-06-19T09:14:36;100338.06;;;28.21;49.24
62333;BME280;48624;49.812;8.562;2023-06-19T09:17:03;100335.78;;;28.18;49.39
62333;BME280;48624;49.812;8.562;2023-06-19T09:19:29;100339.84;;;27.83;50.83
62333;BME280;48624;49.812;8.562;2023-06-19T09:22:05;100335.25;;;28.09;49.58
62333;BME280;48624;49.812;8.562;2023-06-19T09:24:36;100348.47;;;28.06;49.77
62333;BME280;48624;49.812;8.562;2023-06-19T09:27:20;100343.81;;;28.13;49.89
62333;BME280;48624;49.812;8.562;2023-06-19T09:29:50;100341.56;;;28.29;49.46
62333;BME280;48624;49.812;8.562;2023-06-19T09:32:18;100338.19;;;27.82;50.49
62333;BME280;48624;49.812;8.562;2023-06-19T09:34:44;100345.81;;;28.24;49.18
62333;BME280;48624;49.812;8.562;2023-06-19T09:37:10;100340.38;;;28.24;49.04
62333;BME280;48624;49.812;8.562;2023-06-19T09:39:37;100339.75;;;28.22;48.56
62333;BME280;48624;49.812;8.562;2023-06-19T09:42:06;100333.72;;;28.58;48.20
62333;BME280;48624;49.812;8.562;2023-06-19T09:44:42;100341.59;;;28.47;48.53
62333;BME280;48624;49.812;8.562;2023-06-19T09:50:03;100340.81;;;28.96;46.64
62333;BME280;48624;49.812;8.562;2023-06-19T09:52:29;100338.84;;;28.03;49.45
62333;BME280;48624;49.812;8.562;2023-06-19T09:54:55;100331.91;;;28.70;47.85
62333;BME280;48624;49.812;8.562;2023-06-19T09:57:21;100331.44;;;28.55;48.06
62333;BME280;48624;49.812;8.562;2023-06-19T09:59:52;100332.91;;;28.57;47.93
62333;BME280;48624;49.812;8.562;2023-06-19T10:02:19;100325.84;;;28.68;47.70
62333;BME280;48624;49.812;8.562;2023-06-19T10:04:51;100335.75;;;29.61;45.12
62333;BME280;48624;49.812;8.562;2023-06-19T10:07:19;100332.00;;;29.43;45.61
62333;BME280;48624;49.812;8.562;2023-06-19T10:09:57;100334.13;;;29.84;44.60
62333;BME280;48624;49.812;8.562;2023-06-19T10:12:33;100331.44;;;29.53;44.29
62333;BME280;48624;49.812;8.562;2023-06-19T10:15:10;100334.22;;;30.01;43.20
62333;BME280;48624;49.812;8.562;2023-06-19T10:17:36;100340.34;;;29.18;45.50
62333;BME280;48624;49.812;8.562;2023-06-19T10:20:02;100334.09;;;28.80;45.98
62333;BME280;48624;49.812;8.562;2023-06-19T10:22:31;100339.22;;;29.07;45.13
62333;BME280;48624;49.812;8.562;2023-06-19T10:24:57;100334.25;;;29.16;45.33
62333;BME280;48624;49.812;8.562;2023-06-19T10:27:24;100328.59;;;29.48;44.83
62333;BME280;48624;49.812;8.562;2023-06-19T10:29:54;100330.00;;;30.17;42.51
62333;BME280;48624;49.812;8.562;2023-06-19T10:32:20;100325.72;;;30.09;42.93
62333;BME280;48624;49.812;8.562;2023-06-19T10:34:47;100320.06;;;29.44;44.37
62333;BME280;48624;49.812;8.562;2023-06-19T10:37:15;100328.31;;;30.28;42.18
62333;BME280;48624;49.812;8.562;2023-06-19T10:39:41;100330.44;;;30.02;42.47
62333;BME280;48624;49.812;8.562;2023-06-19T10:42:08;100325.84;;;30.26;42.24
62333;BME280;48624;49.812;8.562;2023-06-19T10:44:33;100319.38;;;29.85;43.07
62333;BME280;48624;49.812;8.562;2023-06-19T10:46:59;100324.50;;;29.81;43.52
62333;BME280;48624;49.812;8.562;2023-06-19T10:49:25;100318.66;;;30.49;41.56
62333;BME280;48624;49.812;8.562;2023-06-19T10:51:50;100311.16;;;30.68;40.92
62333;BME280;48624;49.812;8.562;2023-06-19T10:54:16;100313.44;;;30.48;41.09
62333;BME280;48624;49.812;8.562;2023-06-19T10:56:41;100316.78;;;30.02;41.94
62333;BME280;48624;49.812;8.562;2023-06-19T10:59:09;100313.09;;;29.96;42.37
62333;BME280;48624;49.812;8.562;2023-06-19T11:01:41;100314.72;;;29.61;42.54
62333;BME280;48624;49.812;8.562;2023-06-19T11:04:09;100313.34;;;29.40;42.63
62333;BME280;48624;49.812;8.562;2023-06-19T11:06:35;100311.81;;;29.02;43.08
62333;BME280;48624;49.812;8.562;2023-06-19T11:09:01;100313.13;;;30.08;41.68
62333;BME280;48624;49.812;8.562;2023-06-19T11:11:58;100300.63;;;29.53;42.99
62333;BME280;48624;49.812;8.562;2023-06-19T11:14:29;100299.13;;;29.38;43.00
62333;BME280;48624;49.812;8.562;2023-06-19T11:16:55;100295.91;;;30.20;41.52
62333;BME280;48624;49.812;8.562;2023-06-19T11:19:22;100304.69;;;29.98;42.54
62333;BME280;48624;49.812;8.562;2023-06-19T11:21:52;100289.44;;;29.54;42.98
62333;BME280;48624;49.812;8.562;2023-06-19T11:24:18;100286.81;;;30.67;40.68
62333;BME280;48624;49.812;8.562;2023-06-19T11:26:46;100280.28;;;30.56;40.34
62333;BME280;48624;49.812;8.562;2023-06-19T11:29:26;100281.50;;;30.36;40.70
62333;BME280;48624;49.812;8.562;2023-06-19T11:31:54;100280.78;;;30.41;40.38
62333;BME280;48624;49.812;8.562;2023-06-19T11:34:33;100287.75;;;30.60;39.95
62333;BME280;48624;49.812;8.562;2023-06-19T11:37:02;100288.47;;;30.68;39.80
62333;BME280;48624;49.812;8.562;2023-06-19T11:39:29;100291.88;;;30.10;40.77
62333;BME280;48624;49.812;8.562;2023-06-19T11:41:54;100286.88;;;30.19;40.65
62333;BME280;48624;49.812;8.562;2023-06-19T11:44:19;100279.00;;;30.87;39.06
62333;BME280;48624;49.812;8.562;2023-06-19T11:46:45;100271.31;;;31.31;38.64
62333;BME280;48624;49.812;8.562;2023-06-19T11:49:12;100275.91;;;31.59;37.71
62333;BME280;48624;49.812;8.562;2023-06-19T11:51:39;100276.94;;;31.24;38.28
62333;BME280;48624;49.812;8.562;2023-06-19T11:54:06;100262.34;;;31.52;37.51
62333;BME280;48624;49.812;8.562;2023-06-19T11:56:35;100273.31;;;31.87;36.90
62333;BME280;48624;49.812;8.562;2023-06-19T11:59:01;100268.13;;;32.07;36.71
62333;BME280;48624;49.812;8.562;2023-06-19T12:01:27;100265.13;;;32.09;37.00
62333;BME280;48624;49.812;8.562;2023-06-19T12:03:52;100271.41;;;32.27;37.02
62333;BME280;48624;49.812;8.562;2023-06-19T12:06:18;100267.59;;;31.54;38.08
62333;BME280;48624;49.812;8.562;2023-06-19T12:08:43;100263.13;;;31.82;37.84
62333;BME280;48624;49.812;8.562;2023-06-19T12:11:09;100265.97;;;32.32;36.29
62333;BME280;48624;49.812;8.562;2023-06-19T12:13:35;100259.44;;;31.93;36.14
62333;BME280;48624;49.812;8.562;2023-06-19T12:16:00;100260.03;;;31.78;36.80
62333;BME280;48624;49.812;8.562;2023-06-19T12:18:26;100261.53;;;31.86;36.73
62333;BME280;48624;49.812;8.562;2023-06-19T12:20:52;100263.44;;;31.86;36.39
62333;BME280;48624;49.812;8.562;2023-06-19T12:23:17;100257.03;;;31.63;36.60
62333;BME280;48624;49.812;8.562;2023-06-19T12:25:42;100263.03;;;31.94;36.37
62333;BME280;48624;49.812;8.562;2023-06-19T12:28:08;100254.72;;;31.89;36.39
62333;BME280;48624;49.812;8.562;2023-06-19T12:30:34;100245.56;;;32.22;35.88
62333;BME280;48624;49.812;8.562;2023-06-19T12:33:00;100247.03;;;31.68;36.10
62333;BME280;48624;49.812;8.562;2023-06-19T12:35:26;100240.25;;;32.55;34.79
62333;BME280;48624;49.812;8.562;2023-06-19T12:37:52;100246.38;;;32.40;35.70
62333;BME280;48624;49.812;8.562;2023-06-19T12:40:17;100239.66;;;32.53;34.92
62333;BME280;48624;49.812;8.562;2023-06-19T12:42:43;100243.50;;;32.52;35.92
62333;BME280;48624;49.812;8.562;2023-06-19T12:45:09;100250.81;;;32.24;35.36
62333;BME280;48624;49.812;8.562;2023-06-19T12:47:35;100250.53;;;32.43;35.51
62333;BME280;48624;49.812;8.562;2023-06-19T12:50:00;100249.03;;;33.07;34.20